createdAt,value
2018-08-11T00:02:23.644Z,17.96
2018-08-11T00:04:51.712Z,17.94
2018-08-11T00:07:19.776Z,17.91
2018-08-11T00:09:47.832Z,17.89
2018-08-11T00:12:15.888Z,17.88
2018-08-11T00:14:43.948Z,17.89
2018-08-11T00:17:12.024Z,17.88
2018-08-11T00:19:40.065Z,17.86
2018-08-11T00:22:08.120Z,17.83
2018-08-11T00:24:36.172Z,17.80
2018-08-11T00:27:04.265Z,17.80
2018-08-11T00:29:32.316Z,17.82
2018-08-11T00:32:00.379Z,17.82
2018-08-11T00:34:28.420Z,17.81
2018-08-11T00:36:56.474Z,17.79
2018-08-11T00:39:24.512Z,17.77
2018-08-11T00:41:52.576Z,17.77
2018-08-11T00:44:20.619Z,17.77
2018-08-11T00:46:48.732Z,17.77
2018-08-11T00:49:17.474Z,17.77
2018-08-11T00:51:45.648Z,17.79
2018-08-11T00:54:13.688Z,17.79
2018-08-11T00:56:41.735Z,17.77
2018-08-11T00:59:09.783Z,17.74
2018-08-11T01:01:37.881Z,17.69
2018-08-11T01:04:05.931Z,17.70
2018-08-11T01:06:33.976Z,17.70
2018-08-11T01:09:02.029Z,17.71
2018-08-11T01:11:30.088Z,17.71
2018-08-11T01:13:58.157Z,17.72
2018-08-11T01:16:26.225Z,17.73
2018-08-11T01:18:54.324Z,17.74
2018-08-11T01:21:22.381Z,17.72
2018-08-11T01:23:50.544Z,17.73
2018-08-11T01:26:18.591Z,17.72
2018-08-11T01:28:46.688Z,17.74
2018-08-11T01:31:14.731Z,17.74
2018-08-11T01:33:42.790Z,17.74
2018-08-11T01:36:10.862Z,17.73
2018-08-11T01:38:38.936Z,17.73
2018-08-11T01:41:06.975Z,17.72
2018-08-11T01:43:35.044Z,17.71
2018-08-11T01:46:09.796Z,17.71
2018-08-11T01:48:37.856Z,17.68
2018-08-11T01:51:05.911Z,17.64
2018-08-11T01:53:33.972Z,17.62
2018-08-11T01:56:02.054Z,17.63
2018-08-11T01:58:30.164Z,17.60
2018-08-11T02:00:58.212Z,17.57
2018-08-11T02:03:26.293Z,17.56
2018-08-11T02:05:54.385Z,17.59
2018-08-11T02:08:22.432Z,17.57
2018-08-11T02:10:50.478Z,17.60
2018-08-11T02:13:18.533Z,17.61
2018-08-11T02:15:46.596Z,17.57
2018-08-11T02:18:14.631Z,17.54
2018-08-11T02:20:42.680Z,17.53
2018-08-11T02:23:10.707Z,17.52
2018-08-11T02:25:38.747Z,17.50
2018-08-11T02:28:06.839Z,17.50
2018-08-11T02:30:34.878Z,17.52
2018-08-11T02:33:02.923Z,17.57
2018-08-11T02:35:30.957Z,17.61
2018-08-11T02:37:59.000Z,17.67
2018-08-11T02:40:27.072Z,17.72
2018-08-11T02:42:55.108Z,17.75
2018-08-11T02:45:23.177Z,17.78
2018-08-11T02:47:51.189Z,17.82
2018-08-11T02:50:19.266Z,17.85
2018-08-11T02:52:47.299Z,17.88
2018-08-11T02:55:15.336Z,17.88
2018-08-11T02:57:43.371Z,17.88
2018-08-11T03:00:12.309Z,17.90
2018-08-11T03:02:40.368Z,17.93
2018-08-11T03:05:08.408Z,17.97
2018-08-11T03:07:36.709Z,18.00
2018-08-11T03:10:05.896Z,18.01
2018-08-11T03:12:33.935Z,18.02
2018-08-11T03:15:01.979Z,18.03
2018-08-11T03:17:30.040Z,18.01
2018-08-11T03:19:58.114Z,18.02
2018-08-11T03:22:26.145Z,18.05
2018-08-11T03:24:54.205Z,18.08
2018-08-11T03:27:22.244Z,18.08
2018-08-11T03:29:50.298Z,18.11
2018-08-11T03:32:18.408Z,18.13
2018-08-11T03:34:46.464Z,18.13
2018-08-11T03:37:14.513Z,18.11
2018-08-11T03:39:42.608Z,18.08
2018-08-11T03:42:10.651Z,18.04
2018-08-11T03:44:38.722Z,17.99
2018-08-11T03:47:06.761Z,17.99
2018-08-11T03:49:34.807Z,17.95
2018-08-11T03:52:02.855Z,17.94
2018-08-11T03:54:30.903Z,17.93
2018-08-11T03:56:58.956Z,17.92
2018-08-11T03:59:27.026Z,17.89
2018-08-11T04:01:55.068Z,17.87
2018-08-11T04:04:23.140Z,17.84
2018-08-11T04:06:51.197Z,17.79
2018-08-11T04:09:19.244Z,17.70
2018-08-11T04:11:47.308Z,17.60
2018-08-11T04:14:15.343Z,17.52
2018-08-11T04:16:43.388Z,17.46
2018-08-11T04:19:11.416Z,17.39
2018-08-11T04:21:39.463Z,17.35
2018-08-11T04:24:08.110Z,17.25
2018-08-11T04:26:36.157Z,17.12
2018-08-11T04:29:04.204Z,16.95
2018-08-11T04:31:32.249Z,16.77
2018-08-11T04:34:00.276Z,16.61
2018-08-11T04:36:28.304Z,16.52
2018-08-11T04:38:56.375Z,16.49
2018-08-11T04:41:24.424Z,16.43
2018-08-11T04:43:52.448Z,16.41
2018-08-11T04:46:20.520Z,16.37
2018-08-11T04:48:48.547Z,16.32
2018-08-11T04:51:16.621Z,16.27
2018-08-11T04:53:44.651Z,16.26
2018-08-11T04:56:12.696Z,16.19
2018-08-11T04:58:40.807Z,16.12
2018-08-11T05:01:08.852Z,16.03
2018-08-11T05:03:36.875Z,15.93
2018-08-11T05:06:04.917Z,15.88
2018-08-11T05:08:32.948Z,15.91
2018-08-11T05:11:01.019Z,15.89
2018-08-11T05:13:29.058Z,15.85
2018-08-11T05:15:57.124Z,15.83
2018-08-11T05:18:25.184Z,15.81
2018-08-11T05:20:53.243Z,15.77
2018-08-11T05:23:21.315Z,15.74
2018-08-11T05:25:49.372Z,15.71
2018-08-11T05:28:17.440Z,15.70
2018-08-11T05:30:45.484Z,15.70
2018-08-11T05:33:13.610Z,15.71
2018-08-11T05:35:41.612Z,15.66
2018-08-11T05:38:09.710Z,15.64
2018-08-11T05:40:37.776Z,15.65
2018-08-11T05:43:05.862Z,15.69
2018-08-11T05:45:33.945Z,15.75
2018-08-11T05:48:02.004Z,15.76
2018-08-11T05:50:30.060Z,15.75
2018-08-11T05:52:58.121Z,15.77
2018-08-11T05:55:26.184Z,15.73
2018-08-11T05:57:54.264Z,15.74
2018-08-11T06:00:22.336Z,15.73
2018-08-11T06:02:50.396Z,15.76
2018-08-11T06:05:18.493Z,15.75
2018-08-11T06:07:46.553Z,15.71
2018-08-11T06:10:14.640Z,15.70
2018-08-11T06:12:42.708Z,15.71
2018-08-11T06:15:10.785Z,15.74
2018-08-11T06:17:38.876Z,15.81
2018-08-11T06:20:08.276Z,15.86
2018-08-11T06:22:36.381Z,15.98
2018-08-11T06:25:05.900Z,16.03
2018-08-11T06:27:33.967Z,16.05
2018-08-11T06:30:02.194Z,16.10
2018-08-11T06:32:30.204Z,16.12
2018-08-11T06:34:58.416Z,16.12
2018-08-11T06:37:26.471Z,16.10
2018-08-11T06:39:54.528Z,16.13
2018-08-11T06:42:22.598Z,16.10
2018-08-11T06:44:50.705Z,16.13
2018-08-11T06:47:18.781Z,16.13
2018-08-11T06:49:46.883Z,16.10
2018-08-11T06:52:14.952Z,16.29
2018-08-11T06:54:43.028Z,16.49
2018-08-11T06:57:11.189Z,16.62
2018-08-11T06:59:39.503Z,16.74
2018-08-11T07:02:07.589Z,16.74
2018-08-11T07:04:35.683Z,16.77
2018-08-11T07:07:04.005Z,16.85
2018-08-11T07:09:32.053Z,16.88
2018-08-11T07:12:00.115Z,16.95
2018-08-11T07:14:28.187Z,16.98
2018-08-11T07:16:56.250Z,17.00
2018-08-11T07:19:24.316Z,17.06
2018-08-11T07:21:52.412Z,17.17
2018-08-11T07:24:20.459Z,17.28
2018-08-11T07:26:48.532Z,17.36
2018-08-11T07:29:16.616Z,17.32
2018-08-11T07:31:44.660Z,17.32
2018-08-11T07:34:12.720Z,17.50
2018-08-11T07:36:40.874Z,17.63
2018-08-11T07:39:09.545Z,17.81
2018-08-11T07:41:37.612Z,18.09
2018-08-11T07:44:05.705Z,18.37
2018-08-11T07:46:33.756Z,18.68
2018-08-11T07:49:02.038Z,18.79
2018-08-11T07:51:30.094Z,18.82
2018-08-11T07:53:58.155Z,18.99
2018-08-11T07:56:26.217Z,19.07
2018-08-11T07:58:54.284Z,19.21
2018-08-11T08:01:22.354Z,19.32
2018-08-11T08:03:50.400Z,19.33
2018-08-11T08:06:18.439Z,19.51
2018-08-11T08:08:46.489Z,19.69
2018-08-11T08:11:14.532Z,19.74
2018-08-11T08:13:42.651Z,19.91
2018-08-11T08:16:10.655Z,20.03
2018-08-11T08:18:38.724Z,20.28
2018-08-11T08:21:06.807Z,20.62
2018-08-11T08:23:34.893Z,20.63
2018-08-11T08:26:03.001Z,20.33
2018-08-11T08:28:31.015Z,19.98
2018-08-11T08:31:05.609Z,19.85
2018-08-11T08:33:33.683Z,19.82
2018-08-11T08:36:02.120Z,20.07
2018-08-11T08:38:30.508Z,20.22
2018-08-11T08:40:58.615Z,20.24
2018-08-11T08:43:27.054Z,20.31
2018-08-11T08:45:55.146Z,20.48
2018-08-11T08:48:23.248Z,20.55
2018-08-11T08:50:51.329Z,20.56
2018-08-11T08:53:19.483Z,20.80
2018-08-11T08:55:47.516Z,21.16
2018-08-11T08:58:15.620Z,21.40
2018-08-11T09:00:43.688Z,21.67
2018-08-11T09:03:11.804Z,21.79
2018-08-11T09:05:39.863Z,21.73
2018-08-11T09:08:07.975Z,21.55
2018-08-11T09:10:36.056Z,21.41
2018-08-11T09:13:04.191Z,21.28
2018-08-11T09:15:32.300Z,21.20
2018-08-11T09:18:00.416Z,21.16
2018-08-11T09:20:28.521Z,21.06
2018-08-11T09:22:56.577Z,20.82
2018-08-11T09:25:24.646Z,20.73
2018-08-11T09:27:52.708Z,20.67
2018-08-11T09:30:20.776Z,20.55
2018-08-11T09:32:48.849Z,20.41
2018-08-11T09:35:16.918Z,20.28
2018-08-11T09:37:45.005Z,20.21
2018-08-11T09:40:13.063Z,20.10
2018-08-11T09:42:41.108Z,20.07
2018-08-11T09:45:09.164Z,19.99
2018-08-11T09:47:37.231Z,19.87
2018-08-11T09:50:05.331Z,19.74
2018-08-11T09:52:33.425Z,19.52
2018-08-11T09:55:01.479Z,19.23
2018-08-11T09:57:29.584Z,19.00
2018-08-11T09:59:57.808Z,18.73
2018-08-11T10:02:25.921Z,18.60
2018-08-11T10:04:53.972Z,18.41
2018-08-11T10:07:22.046Z,18.33
2018-08-11T10:09:50.108Z,18.30
2018-08-11T10:12:18.172Z,18.39
2018-08-11T10:14:46.247Z,18.58
2018-08-11T10:17:14.312Z,18.69
2018-08-11T10:19:42.372Z,18.76
2018-08-11T10:22:10.460Z,18.72
2018-08-11T10:24:38.537Z,18.67
2018-08-11T10:27:06.568Z,18.61
2018-08-11T10:29:34.628Z,18.61
2018-08-11T10:32:02.669Z,18.61
2018-08-11T10:34:30.745Z,18.55
2018-08-11T10:36:58.800Z,18.55
2018-08-11T10:39:26.852Z,18.46
2018-08-11T10:41:54.912Z,18.40
2018-08-11T10:44:22.959Z,18.48
2018-08-11T10:46:51.004Z,18.54
2018-08-11T10:49:19.096Z,18.58
2018-08-11T10:51:47.191Z,18.70
2018-08-11T10:54:15.236Z,18.93
2018-08-11T10:56:43.280Z,19.10
2018-08-11T10:59:11.337Z,19.31
2018-08-11T11:01:39.393Z,19.35
2018-08-11T11:04:07.463Z,19.32
2018-08-11T11:06:35.553Z,19.27
2018-08-11T11:09:04.612Z,19.22
2018-08-11T11:11:32.664Z,19.23
2018-08-11T11:14:00.723Z,19.38
2018-08-11T11:16:28.788Z,19.61
2018-08-11T11:18:56.835Z,19.70
2018-08-11T11:21:24.910Z,19.72
2018-08-11T11:23:52.944Z,19.76
2018-08-11T11:26:20.990Z,19.75
2018-08-11T11:28:49.024Z,19.79
2018-08-11T11:31:17.116Z,19.76
2018-08-11T11:33:45.164Z,19.80
2018-08-11T11:36:13.209Z,19.95
2018-08-11T11:38:41.238Z,20.62
2018-08-11T11:41:09.289Z,20.81
2018-08-11T11:43:37.368Z,20.74
2018-08-11T11:46:05.432Z,20.53
2018-08-11T11:48:33.500Z,20.34
2018-08-11T11:51:01.580Z,20.18
2018-08-11T11:53:29.631Z,20.16
2018-08-11T11:55:57.702Z,20.47
2018-08-11T11:58:25.760Z,20.62
2018-08-11T12:00:53.812Z,20.64
2018-08-11T12:03:21.881Z,20.80
2018-08-11T12:05:49.954Z,21.08
2018-08-11T12:08:17.995Z,21.35
2018-08-11T12:10:46.072Z,21.61
2018-08-11T12:13:14.151Z,22.27
2018-08-11T12:15:42.338Z,22.60
2018-08-11T12:18:10.401Z,22.54
2018-08-11T12:20:38.560Z,22.30
2018-08-11T12:23:06.677Z,22.06
2018-08-11T12:25:34.760Z,21.92
2018-08-11T12:28:02.841Z,21.78
2018-08-11T12:30:30.928Z,21.61
2018-08-11T12:32:59.012Z,21.49
2018-08-11T12:35:27.079Z,21.56
2018-08-11T12:37:55.195Z,22.03
2018-08-11T12:40:23.224Z,22.20
2018-08-11T12:42:51.327Z,22.21
2018-08-11T12:45:19.407Z,22.15
2018-08-11T12:47:47.504Z,22.05
2018-08-11T12:50:15.563Z,21.90
2018-08-11T12:52:43.644Z,21.79
2018-08-11T12:55:11.807Z,21.60
2018-08-11T12:57:39.886Z,21.28
2018-08-11T13:00:09.181Z,20.86
2018-08-11T13:02:37.352Z,20.54
2018-08-11T13:05:05.534Z,20.29
2018-08-11T13:07:33.678Z,20.20
2018-08-11T13:10:01.750Z,20.05
2018-08-11T13:12:30.424Z,19.95
2018-08-11T13:14:58.488Z,19.82
2018-08-11T13:17:26.557Z,19.69
2018-08-11T13:19:54.588Z,19.49
2018-08-11T13:22:23.035Z,19.22
2018-08-11T13:24:51.076Z,19.34
2018-08-11T13:27:19.161Z,19.56
2018-08-11T13:29:47.244Z,19.99
2018-08-11T13:32:15.361Z,20.48
2018-08-11T13:34:43.394Z,20.82
2018-08-11T13:37:11.496Z,20.89
2018-08-11T13:39:46.167Z,20.79
2018-08-11T13:42:14.336Z,20.71
2018-08-11T13:44:42.397Z,20.53
2018-08-11T13:47:10.458Z,20.70
2018-08-11T13:49:38.510Z,20.75
2018-08-11T13:52:06.591Z,20.70
2018-08-11T13:54:34.672Z,20.61
2018-08-11T13:57:02.741Z,20.81
2018-08-11T13:59:30.812Z,21.11
2018-08-11T14:01:58.888Z,21.43
2018-08-11T14:04:26.951Z,21.71
2018-08-11T14:06:55.041Z,21.96
2018-08-11T14:09:23.111Z,22.16
2018-08-11T14:11:51.202Z,22.33
2018-08-11T14:14:19.267Z,22.43
2018-08-11T14:16:47.336Z,22.44
2018-08-11T14:19:15.394Z,22.34
2018-08-11T14:21:43.541Z,22.59
2018-08-11T14:24:11.568Z,22.87
2018-08-11T14:26:39.644Z,23.00
2018-08-11T14:29:07.706Z,22.89
